Elrama, Pennsylvania
Current Conditions -  °F | °C
As of 3:22 PM on Monday 26 Jan 2015 (Local Time) from KAGC Reporting Station
Light Snow Light Snow  
Wind Chill: 18°   Ceiling: 700
Heat Index: 27°   Visibility: 0.75mi
Dew Point: 22°   Wind: 9mph
Humidity: 81%   Direction: 330°NNW
Pressure: 29.67"   Gusts: NA
Location:  40.25°N, 79.92°W
Report Text: KAGC 262022Z 33008KT 3/4SM R28/4500VP6000FT -SN BKN007 OVC018 M03/M06 A2967 RMK AO2 P0000 T10281056
Loading
Personal Weather Stations






























Interactive Weather Map New forecast layout! Learn more

10-Day Weather Forecast

Advertisements
Track Severe Weather on mobile